Time;durP1;ratioP1;P1;durP2;ratioP2;P2;SDS_P1;SDS_P2;PMS_P1;PMS_P2;Temp;Humidity;BMP_temperature;BMP_pressure;BME280_temperature;BME280_humidity;BME280_pressure;Samples;Min_cycle;Max_cycle;Signal;HPM_P1;HPM_P2
2022/05/19 08:12:04;;;;;;;14.65;13.00;;;;;;;21.61;72.63;101498.09;5343087;28;20035;-72
2022/05/19 08:17:27;;;;;;;12.50;11.25;;;;;;;21.82;69.68;101504.47;5342726;28;20035;-73
2022/05/19 08:19:58;;;;;;;12.63;11.25;;;;;;;21.96;69.59;101504.16;5343684;28;20162;-72
2022/05/19 08:22:30;;;;;;;13.73;11.98;;;;;;;22.07;69.21;101513.81;5345477;28;20020;-77
2022/05/19 08:25:01;;;;;;;11.70;10.60;;;;;;;22.14;67.83;101505.59;5345132;28;20023;-79
2022/05/19 08:27:32;;;;;;;11.15;10.02;;;;;;;22.32;68.02;101511.03;5343704;28;20479;-78
2022/05/19 08:30:04;;;;;;;14.73;10.82;;;;;;;22.38;66.87;101512.44;5343465;28;20041;-79
2022/05/19 08:32:39;;;;;;;12.25;10.95;;;;;;;22.44;65.86;101498.88;5342808;28;20074;-79
2022/05/19 08:35:11;;;;;;;10.80;9.80;;;;;;;22.58;65.66;101494.50;5347395;28;20031;-84
2022/05/19 08:37:42;;;;;;;13.48;9.75;;;;;;;22.65;64.42;101487.41;5347094;28;20032;-80
2022/05/19 08:40:13;;;;;;;11.55;9.85;;;;;;;22.74;63.46;101488.09;5343358;27;20100;-78
2022/05/19 08:42:51;;;;;;;10.95;9.85;;;;;;;22.86;63.41;101490.91;5343023;28;20015;-78
2022/05/19 08:45:34;;;;;;;10.18;9.20;;;;;;;22.98;62.97;101493.72;5341682;28;20019;-79
2022/05/19 08:48:19;;;;;;;13.18;10.02;;;;;;;22.98;61.85;101476.75;5322884;28;20028;-78
2022/05/19 08:51:00;;;;;;;14.25;10.32;;;;;;;23.08;62.31;101481.06;5335655;28;20419;-77
2022/05/19 08:53:36;;;;;;;16.27;8.85;;;;;;;23.19;62.12;101472.91;5343009;28;20104;-77
2022/05/19 08:56:25;;;;;;;10.55;8.55;;;;;;;23.30;61.27;101465.53;5343401;28;20494;-77
2022/05/19 08:59:28;;;;;;;9.70;8.80;;;;;;;23.43;61.31;101460.63;5342598;28;20114;-73
2022/05/19 09:02:13;;;;;;;10.52;9.05;;;;;;;23.44;61.29;101465.94;5342762;28;20023;-72
2022/05/19 09:05:03;;;;;;;11.07;8.48;;;;;;;23.50;60.67;101463.66;5342875;28;20019;-73
2022/05/19 09:08:05;;;;;;;9.10;8.20;;;;;;;23.42;60.80;101456.97;5341608;28;20522;-73
2022/05/19 09:11:00;;;;;;;8.85;7.95;;;;;;;23.53;61.47;101456.44;5328540;28;20063;-73
2022/05/19 09:13:50;;;;;;;9.60;8.63;;;;;;;23.57;60.74;101460.16;5327529;28;20104;-72
2022/05/19 09:16:25;;;;;;;13.75;8.82;;;;;;;23.72;60.69;101459.38;5327914;28;20032;-72
2022/05/19 09:19:07;;;;;;;11.75;7.60;;;;;;;23.89;60.83;101454.56;5327847;28;20030;-72
2022/05/19 09:21:41;;;;;;;10.23;7.70;;;;;;;24.03;60.38;101455.75;5327045;28;20038;-81
2022/05/19 09:24:12;;;;;;;9.48;8.50;;;;;;;24.09;59.58;101448.59;5327395;28;20027;-79
2022/05/19 09:26:55;;;;;;;12.70;8.40;;;;;;;24.17;59.13;101449.59;5327684;28;20035;-79
2022/05/19 09:29:34;;;;;;;8.13;7.10;;;;;;;24.20;59.03;101456.53;5328038;28;20031;-78
2022/05/19 09:32:30;;;;;;;15.05;8.20;;;;;;;24.27;59.04;101451.84;5327470;28;20038;-77
2022/05/19 09:35:15;;;;;;;8.00;6.38;;;;;;;24.34;59.19;101453.19;5327435;28;20028;-75
2022/05/19 09:38:03;;;;;;;7.97;6.67;;;;;;;24.33;58.51;101465.75;5307428;28;20028;-78
2022/05/19 09:40:39;;;;;;;11.65;8.45;;;;;;;24.32;58.37;101458.44;5308186;28;20034;-73
2022/05/19 09:43:19;;;;;;;12.35;7.53;;;;;;;24.33;58.56;101454.41;5319053;28;20027;-82
2022/05/19 09:45:58;;;;;;;12.50;7.88;;;;;;;24.34;58.74;101456.03;5324455;28;20020;-84
2022/05/19 09:48:39;;;;;;;8.88;7.82;;;;;;;24.34;59.02;101451.22;5318538;28;20114;-81
2022/05/19 09:51:15;;;;;;;10.98;7.15;;;;;;;24.41;59.13;101456.22;5325279;28;20024;-77
2022/05/19 09:53:48;;;;;;;;;;;;;;;24.41;58.24;101451.34;5319585;28;20020;-72
2022/05/19 09:56:24;;;;;;;12.85;7.70;;;;;;;24.49;56.94;101449.53;5306962;28;20337;-77
2022/05/19 09:59:06;;;;;;;12.43;6.68;;;;;;;24.56;57.17;101441.19;5327182;28;20440;-74
2022/05/19 10:01:41;;;;;;;11.93;7.43;;;;;;;24.61;56.87;101429.56;5320858;28;20043;-75
2022/05/19 10:04:37;;;;;;;11.63;5.63;;;;;;;24.73;56.65;101428.59;5318785;28;20453;-78
2022/05/19 10:07:17;;;;;;;;;;;;;;;24.72;55.90;101426.94;5324578;28;20046;-79
2022/05/19 10:09:50;;;;;;;9.70;5.40;;;;;;;24.79;54.69;101414.94;5320357;28;19923;-81
2022/05/19 10:12:28;;;;;;;9.48;5.38;;;;;;;24.92;53.92;101410.75;5325493;28;20433;-80
2022/05/19 10:15:13;;;;;;;6.90;5.50;;;;;;;24.97;52.56;101404.78;5326896;28;20482;-81
2022/05/19 10:17:50;;;;;;;;;;;;;;;24.97;53.64;101387.75;5304906;28;20040;-78
2022/05/19 10:20:25;;;;;;;5.25;4.57;;;;;;;25.14;52.17;101383.63;5309449;28;19920;-78
2022/05/19 10:23:18;;;;;;;7.50;4.80;;;;;;;25.26;52.03;101385.47;5318184;28;20102;-79
2022/05/19 10:26:15;;;;;;;8.65;5.47;;;;;;;25.28;51.84;101397.28;5326030;28;20042;-79
2022/05/19 10:31:58;;;;;;;6.30;4.88;;;;;;;25.30;51.15;101378.69;5319932;27;20478;-77
2022/05/19 10:34:38;;;;;;;7.15;5.22;;;;;;;25.46;51.22;101383.41;5316468;28;20020;-81
2022/05/19 10:37:35;;;;;;;12.32;5.55;;;;;;;25.60;51.06;101375.97;5305036;28;20078;-79
2022/05/19 10:40:33;;;;;;;7.35;5.57;;;;;;;25.65;50.72;101388.22;5325271;28;20112;-79
2022/05/19 10:43:27;;;;;;;8.02;5.13;;;;;;;25.64;50.82;101390.19;5325001;28;20036;-79
2022/05/19 10:45:59;;;;;;;9.23;4.78;;;;;;;25.60;50.47;101398.69;5325338;28;20027;-75
2022/05/19 10:48:57;;;;;;;9.27;4.32;;;;;;;25.58;50.57;101395.38;5326138;28;20102;-79
2022/05/19 10:51:57;;;;;;;4.97;4.20;;;;;;;25.58;50.17;101394.56;5659908;22;20083;-77
2022/05/19 10:54:53;;;;;;;7.85;4.00;;;;;;;25.66;49.74;101387.81;5264100;28;20037;-78
2022/05/19 10:57:43;;;;;;;8.77;4.60;;;;;;;25.69;49.64;101389.06;5264673;28;20480;-78
2022/05/19 11:00:22;;;;;;;6.93;4.65;;;;;;;25.81;49.39;101391.72;5262434;28;20040;-78
2022/05/19 11:03:30;;;;;;;7.63;4.47;;;;;;;25.86;49.47;101380.06;5273179;28;20158;-73
2022/05/19 11:06:36;;;;;;;7.78;4.25;;;;;;;25.81;49.39;101386.03;5252584;28;20036;-79
2022/05/19 11:09:16;;;;;;;;;;;;;;;25.76;49.65;101380.69;5284296;28;20487;-78
2022/05/19 11:12:24;;;;;;;11.27;4.90;;;;;;;25.74;49.48;101383.06;5267228;28;19978;-78
2022/05/19 11:15:09;;;;;;;9.65;4.80;;;;;;;25.68;49.32;101373.25;5270173;28;20039;-78
2022/05/19 11:17:58;;;;;;;7.25;5.32;;;;;;;25.66;49.86;101373.59;5276506;28;20117;-81
2022/05/19 11:20:58;;;;;;;6.63;5.03;;;;;;;25.58;49.91;101383.22;5241467;28;20086;-81
2022/05/19 11:23:54;;;;;;;6.05;4.53;;;;;;;25.52;50.24;101396.91;5243036;28;20045;-81
2022/05/19 11:26:38;;;;;;;6.32;4.57;;;;;;;25.49;50.50;101409.03;5242505;28;20079;-81
2022/05/19 11:29:33;;;;;;;6.32;4.93;;;;;;;25.45;50.91;101415.84;5243565;28;20029;-80
2022/05/19 11:32:23;;;;;;;7.75;4.22;;;;;;;25.34;50.77;101429.84;5254126;28;20029;-81
2022/05/19 11:35:00;;;;;;;6.10;4.90;;;;;;;25.29;51.38;101433.00;5262789;28;20072;-82
2022/05/19 11:37:48;;;;;;;7.50;4.55;;;;;;;25.25;51.59;101449.13;5243272;28;20033;-82
2022/05/19 11:40:40;;;;;;;8.63;4.55;;;;;;;25.24;51.58;101583.75;5250298;28;20025;-86
2022/05/19 11:43:30;;;;;;;61.83;6.97;;;;;;;23.68;61.62;101706.81;5263111;28;20412;-76
2022/05/19 11:46:12;;;;;;;42.92;9.77;;;;;;;20.48;84.97;101715.94;5262263;28;20490;-79
2022/05/19 11:55:19;;;;;;;7.97;2.85;;;;;;;18.73;91.45;101677.63;5251997;28;20037;-76
2022/05/19 11:58:03;;;;;;;4.70;2.03;;;;;;;18.78;88.82;101674.69;5241665;28;20068;-75
2022/05/19 12:00:58;;;;;;;5.13;2.50;;;;;;;18.29;87.97;101652.16;5241395;28;20033;-75
2022/05/19 12:03:34;;;;;;;11.50;9.68;;;;;;;18.11;88.33;101658.84;5240437;28;20411;-76
2022/05/19 12:06:12;;;;;;;6.97;2.38;;;;;;;18.12;89.71;101638.84;5260156;28;20064;-76
2022/05/19 12:09:07;;;;;;;5.15;2.97;;;;;;;18.20;90.15;101640.03;5261801;28;20476;-76
2022/05/19 12:11:45;;;;;;;4.82;2.03;;;;;;;18.27;90.96;101653.63;5264606;28;20024;-74
2022/05/19 12:14:27;;;;;;;3.30;1.50;;;;;;;18.41;91.05;101651.56;5242794;28;20047;-75
2022/05/19 12:17:01;;;;;;;4.38;2.72;;;;;;;18.56;90.32;101641.84;5244424;28;20021;-75
2022/05/19 12:19:44;;;;;;;5.93;2.47;;;;;;;18.43;92.24;101626.75;5248304;28;20029;-74
2022/05/19 12:22:24;;;;;;;3.83;2.42;;;;;;;18.39;92.29;101634.19;5245787;28;20055;-78
2022/05/19 12:25:01;;;;;;;4.47;3.17;;;;;;;18.39;94.46;101598.50;5261262;28;20047;-76
2022/05/19 12:27:57;;;;;;;4.07;3.28;;;;;;;18.51;94.74;101599.88;5262246;28;20540;-77
2022/05/19 12:33:35;;;;;;;6.32;4.07;;;;;;;18.63;95.53;101634.59;5263623;28;20119;-76
2022/05/19 12:36:12;;;;;;;5.40;3.80;;;;;;;18.82;94.80;101661.66;5261599;28;20048;-76
2022/05/19 12:38:45;;;;;;;5.53;4.90;;;;;;;18.82;94.83;101661.66;5260513;28;20162;-77
2022/05/19 12:41:22;;;;;;;6.10;5.50;;;;;;;18.75;94.01;101650.03;5261682;28;20125;-77
2022/05/19 12:43:54;;;;;;;5.82;5.10;;;;;;;19.00;94.90;101635.25;5262954;28;20068;-76
2022/05/19 12:46:34;;;;;;;8.35;6.90;;;;;;;18.96;95.46;101628.63;5264884;28;20052;-76
2022/05/19 12:49:25;;;;;;;10.25;9.15;;;;;;;19.20;94.84;101618.88;5264543;28;20036;-76
2022/05/19 12:51:58;;;;;;;6.40;5.80;;;;;;;19.27;92.80;101588.28;5276439;28;20052;-76
2022/05/19 12:54:33;;;;;;;8.40;7.63;;;;;;;19.34;93.53;101600.69;5265187;28;20051;-74
2022/05/19 12:57:07;;;;;;;;;;;;;;;19.58;91.45;101637.91;5265439;28;20029;-77
2022/05/19 12:59:47;;;;;;;6.68;6.10;;;;;;;19.62;91.75;101676.31;5263988;28;19913;-77
2022/05/19 13:02:32;;;;;;;8.82;7.95;;;;;;;19.71;90.86;101677.19;5264668;28;20017;-77
2022/05/19 13:05:16;;;;;;;8.95;6.40;;;;;;;19.89;90.66;101638.59;5263803;28;20041;-77
2022/05/19 13:07:57;;;;;;;9.15;7.72;;;;;;;20.23;94.98;101605.03;5266344;28;20032;-79
2022/05/19 13:10:46;;;;;;;8.02;7.32;;;;;;;20.22;93.03;101595.75;5264903;28;20029;-80
2022/05/19 13:13:38;;;;;;;8.13;5.70;;;;;;;20.26;89.79;101582.66;5264484;28;20065;-80
2022/05/19 13:16:16;;;;;;;8.18;7.20;;;;;;;20.19;90.97;101591.63;5266294;28;20037;-81
2022/05/19 13:18:53;;;;;;;8.43;7.63;;;;;;;20.36;92.07;101579.47;5268145;28;20035;-77
2022/05/19 13:21:56;;;;;;;8.02;7.15;;;;;;;20.44;89.70;101602.31;5282667;28;20033;-78
2022/05/19 13:24:29;;;;;;;8.50;6.70;;;;;;;20.40;88.51;101662.13;5266968;28;20064;-77
2022/05/19 13:32:41;;;;;;;7.47;6.70;;;;;;;20.20;87.24;101733.28;5264824;28;20033;-79
2022/05/19 13:35:22;;;;;;;9.73;7.53;;;;;;;20.05;91.16;101685.94;5263525;28;20025;-78
2022/05/19 13:37:54;;;;;;;48.35;43.47;;;;;;;19.97;90.71;101606.78;5268154;28;20029;-79
2022/05/19 13:40:36;;;;;;;22.63;20.50;;;;;;;19.87;91.00;101533.13;5263234;28;20461;-78
2022/05/19 13:43:12;;;;;;;106.53;95.97;;;;;;;19.84;92.79;101545.88;5274575;28;20479;-79
2022/05/19 13:45:50;;;;;;;11.80;10.05;;;;;;;19.96;92.17;101545.16;5269439;28;20033;-77
2022/05/19 13:48:39;;;;;;;10.30;7.10;;;;;;;19.95;89.98;101563.22;5262187;28;20037;-77
2022/05/19 13:51:33;;;;;;;9.13;8.20;;;;;;;20.18;91.90;101587.16;5267859;28;20032;-78
2022/05/19 13:54:11;;;;;;;8.40;7.53;;;;;;;20.24;90.67;101601.88;5263777;28;20059;-78
2022/05/19 13:56:46;;;;;;;10.55;7.13;;;;;;;20.56;90.07;101605.25;5251966;28;20040;-77
2022/05/19 13:59:20;;;;;;;7.18;6.47;;;;;;;20.57;87.40;101595.63;5243298;28;20036;-79
2022/05/19 14:01:55;;;;;;;8.37;7.57;;;;;;;20.57;88.28;101584.34;5242869;28;20034;-79
2022/05/19 14:04:29;;;;;;;7.38;6.65;;;;;;;20.69;85.94;101586.47;5250857;28;20287;-78
2022/05/19 14:07:01;;;;;;;7.88;7.05;;;;;;;20.76;84.46;101584.75;5263473;28;20606;-79
2022/05/19 14:09:48;;;;;;;79.85;53.60;;;;;;;21.22;87.61;101593.38;5276709;28;20393;-78
2022/05/19 14:12:19;;;;;;;10.77;8.18;;;;;;;21.51;83.26;101606.59;5263221;28;20025;-80
2022/05/19 14:14:56;;;;;;;8.70;6.78;;;;;;;21.61;84.07;101623.09;5243328;28;20041;-78
2022/05/19 14:17:31;;;;;;;6.95;6.30;;;;;;;21.57;80.49;101635.44;5259295;28;20025;-79
2022/05/19 14:20:10;;;;;;;5.50;4.85;;;;;;;21.47;78.59;101645.13;5263661;28;20036;-78
2022/05/19 14:22:42;;;;;;;6.50;5.57;;;;;;;21.37;75.80;101649.19;5263046;28;20029;-78
2022/05/19 14:25:17;;;;;;;6.72;6.22;;;;;;;21.20;78.66;101641.66;5263495;28;20070;-77
2022/05/19 14:28:00;;;;;;;5.40;4.90;;;;;;;21.36;77.57;101644.69;5263674;28;20216;-78
2022/05/19 14:30:40;;;;;;;6.50;6.00;;;;;;;21.50;80.82;101658.56;5262446;28;20380;-78
2022/05/19 14:33:21;;;;;;;6.20;5.70;;;;;;;21.44;81.17;101668.41;5267171;28;20028;-79
2022/05/19 14:36:15;;;;;;;6.88;4.95;;;;;;;21.32;81.28;101665.47;5283881;28;20021;-77
2022/05/19 14:38:52;;;;;;;6.70;6.00;;;;;;;21.40;81.14;101668.28;5261706;28;20118;-77
2022/05/19 14:44:32;;;;;;;6.50;5.90;;;;;;;21.45;83.07;101679.34;5266097;28;20111;-75
2022/05/19 14:47:12;;;;;;;7.05;6.15;;;;;;;21.40;82.50;101690.84;5256898;28;20116;-76
2022/05/19 14:50:00;;;;;;;8.35;6.75;;;;;;;21.29;83.57;101698.00;5263060;28;20058;-78
2022/05/19 14:52:39;;;;;;;8.48;7.68;;;;;;;21.20;85.95;101703.72;5263422;28;20045;-79
2022/05/19 14:55:38;;;;;;;9.18;8.43;;;;;;;21.32;86.10;101702.13;5266746;28;20139;-77
2022/05/19 14:58:20;;;;;;;8.05;7.22;;;;;;;21.40;86.29;101710.59;5260583;28;20056;-77
2022/05/19 15:00:52;;;;;;;7.30;6.65;;;;;;;21.58;85.30;101708.47;5263937;28;20024;-79
2022/05/19 15:03:23;;;;;;;8.18;7.13;;;;;;;21.66;84.64;101720.88;5269838;28;20033;-76
2022/05/19 15:05:54;;;;;;;7.68;6.93;;;;;;;21.67;85.00;101705.56;5257629;28;20472;-79
2022/05/19 15:08:28;;;;;;;8.70;7.75;;;;;;;21.75;84.43;101712.31;5263192;28;20032;-80
2022/05/19 15:11:00;;;;;;;8.82;8.13;;;;;;;21.67;84.72;101714.84;5262948;28;20029;-79
2022/05/19 15:13:32;;;;;;;9.60;8.70;;;;;;;21.75;84.89;101706.66;5261570;28;20036;-80
2022/05/19 15:16:04;;;;;;;10.40;9.23;;;;;;;21.58;82.60;101702.00;5262570;28;20033;-81
2022/05/19 15:18:35;;;;;;;8.88;8.07;;;;;;;21.68;81.52;101708.06;5262425;28;20433;-78
2022/05/19 15:21:07;;;;;;;9.00;8.20;;;;;;;21.83;82.19;101715.06;5266968;28;20025;-72
2022/05/19 15:23:39;;;;;;;12.50;8.43;;;;;;;21.68;80.99;101725.00;5241526;28;20021;-75
2022/05/19 15:26:14;;;;;;;9.45;8.50;;;;;;;21.69;79.77;101725.81;5240443;28;20036;-74
2022/05/19 15:28:46;;;;;;;9.35;8.38;;;;;;;21.80;80.96;101732.69;5252829;28;20032;-75
2022/05/19 15:31:17;;;;;;;8.65;7.72;;;;;;;21.91;79.83;101730.28;5262184;28;20083;-76
2022/05/19 15:33:48;;;;;;;8.45;7.63;;;;;;;21.94;78.22;101738.06;5261905;28;20025;-76
2022/05/19 15:36:20;;;;;;;7.97;7.22;;;;;;;21.86;77.03;101736.16;5261281;28;20056;-75
2022/05/19 15:38:51;;;;;;;8.15;7.10;;;;;;;21.83;77.48;101742.47;5258771;28;20024;-80
2022/05/19 15:41:22;;;;;;;9.20;8.20;;;;;;;21.88;79.39;101736.59;5265666;28;20032;-77
2022/05/19 15:43:57;;;;;;;9.38;8.48;;;;;;;21.83;79.37;101748.97;5264541;28;20418;-77
2022/05/19 15:46:29;;;;;;;9.80;8.90;;;;;;;22.02;79.03;101756.09;5271861;28;20090;-78
2022/05/19 15:49:00;;;;;;;9.38;8.48;;;;;;;21.89;77.50;101763.69;5262130;28;20037;-79
2022/05/19 15:51:31;;;;;;;8.30;7.43;;;;;;;21.85;78.14;101765.53;5263749;28;20365;-78
2022/05/19 15:54:04;;;;;;;10.15;8.15;;;;;;;21.80;79.38;101762.91;5261426;28;20095;-76
2022/05/19 15:56:38;;;;;;;8.57;7.82;;;;;;;21.84;80.51;101755.44;5256278;28;20111;-78
2022/05/19 15:59:10;;;;;;;10.15;8.32;;;;;;;21.87;80.80;101760.38;5260453;28;20074;-75
2022/05/19 16:01:41;;;;;;;10.20;9.18;;;;;;;21.76;79.92;101757.16;5260140;28;20025;-76
2022/05/19 16:04:12;;;;;;;8.77;7.93;;;;;;;21.63;80.41;101764.72;5261796;28;20387;-76
2022/05/19 16:06:44;;;;;;;9.48;8.48;;;;;;;21.54;80.68;101766.75;5261225;28;20033;-77
2022/05/19 16:09:15;;;;;;;9.38;8.57;;;;;;;21.54;79.15;101768.75;5259956;28;20465;-75
2022/05/19 16:11:46;;;;;;;9.35;8.43;;;;;;;21.57;80.19;101771.72;5258033;28;20067;-76
2022/05/19 16:14:18;;;;;;;10.88;7.15;;;;;;;21.50;78.37;101768.63;5240966;28;20072;-78
2022/05/19 16:16:50;;;;;;;8.18;7.47;;;;;;;21.49;78.74;101772.59;5260973;28;20028;-78
2022/05/19 16:19:21;;;;;;;7.85;7.10;;;;;;;21.43;77.01;101769.16;5263534;28;20415;-78
2022/05/19 16:21:52;;;;;;;8.25;7.45;;;;;;;21.44;76.97;101769.97;5354256;22;20048;-78
2022/05/19 16:24:24;;;;;;;8.25;7.45;;;;;;;21.46;75.92;101781.75;5306487;28;20145;-78
2022/05/19 16:26:55;;;;;;;9.35;7.45;;;;;;;21.31;75.14;101783.13;5278616;22;20080;-77
2022/05/19 16:29:27;;;;;;;8.75;7.95;;;;;;;21.31;75.89;101776.66;5491706;22;20033;-79
2022/05/19 16:31:58;;;;;;;10.10;7.95;;;;;;;21.25;76.57;101774.03;5286168;28;20048;-78
2022/05/19 16:34:32;;;;;;;8.40;7.68;;;;;;;21.23;76.31;101782.00;5286844;28;20044;-77
2022/05/19 16:37:06;;;;;;;7.73;7.03;;;;;;;20.90;75.06;101790.28;5285739;28;20032;-77
2022/05/19 16:39:37;;;;;;;8.80;7.90;;;;;;;21.01;76.02;101785.94;5286700;28;20100;-77
2022/05/19 16:42:10;;;;;;;8.38;7.18;;;;;;;20.97;76.17;101778.50;5286413;28;20107;-78
2022/05/19 16:44:41;;;;;;;9.93;8.98;;;;;;;21.06;76.38;101782.94;5285594;28;20024;-77
2022/05/19 16:47:13;;;;;;;9.15;7.57;;;;;;;20.98;76.19;101778.16;5286255;28;20016;-78
2022/05/19 16:49:44;;;;;;;7.13;6.43;;;;;;;21.26;75.38;101770.03;5286511;28;20024;-78
2022/05/19 16:52:16;;;;;;;5.68;4.80;;;;;;;21.16;73.03;101781.72;5285386;28;20028;-78
2022/05/19 16:57:50;;;;;;;6.88;4.95;;;;;;;21.49;71.20;101783.91;5264531;28;20080;-78
2022/05/19 17:00:25;;;;;;;5.68;3.53;;;;;;;21.28;69.95;101790.28;5265276;28;20032;-78
2022/05/19 17:02:57;;;;;;;4.20;3.15;;;;;;;21.39;69.31;101790.75;5271149;28;20544;-76
2022/05/19 17:05:30;;;;;;;8.23;3.78;;;;;;;21.40;68.45;101802.88;5285876;28;20058;-78
2022/05/19 17:08:03;;;;;;;5.97;4.35;;;;;;;21.37;68.21;101801.53;5286168;28;20132;-77
2022/05/19 17:10:37;;;;;;;5.07;3.83;;;;;;;21.11;67.98;101801.66;5286283;28;20032;-77
2022/05/19 17:13:09;;;;;;;5.43;4.78;;;;;;;20.80;67.72;101802.75;5285131;28;20078;-76
2022/05/19 17:15:42;;;;;;;5.13;4.63;;;;;;;21.10;68.08;101799.19;5285907;28;20070;-78
2022/05/19 17:18:15;;;;;;;7.60;5.07;;;;;;;21.20;68.52;101807.25;5279697;28;20497;-77
2022/05/19 17:20:48;;;;;;;6.72;5.00;;;;;;;21.35;68.95;101814.34;5283888;28;20036;-77
2022/05/19 17:23:20;;;;;;;5.90;5.25;;;;;;;20.91;68.08;101810.84;5284927;28;20024;-78
2022/05/19 17:25:51;;;;;;;6.63;5.95;;;;;;;20.88;68.12;101815.16;5283736;28;20055;-78
2022/05/19 17:28:23;;;;;;;7.78;5.72;;;;;;;20.81;68.57;101820.50;5285503;28;20033;-76
2022/05/19 17:30:55;;;;;;;7.88;6.82;;;;;;;20.72;68.88;101814.88;5284950;28;20037;-76
